createdAt,value
2019-03-04T00:01:25.689Z,11.56
2019-03-04T00:03:54.836Z,11.79
2019-03-04T00:06:23.965Z,11.83
2019-03-04T00:08:53.279Z,11.94
2019-03-04T00:11:24.844Z,11.94
2019-03-04T00:13:53.927Z,12.04
2019-03-04T00:16:23.006Z,11.93
2019-03-04T00:18:52.097Z,12.00
2019-03-04T00:21:22.487Z,11.97
2019-03-04T00:23:51.584Z,12.02
2019-03-04T00:26:23.707Z,11.96
2019-03-04T00:28:55.264Z,11.81
2019-03-04T00:31:24.393Z,11.82
2019-03-04T00:33:53.561Z,11.88
2019-03-04T00:36:24.280Z,12.01
2019-03-04T00:38:53.481Z,11.85
2019-03-04T00:41:22.572Z,3.14
2019-03-04T00:43:52.362Z,12.14
2019-03-04T00:46:23.383Z,11.62
2019-03-04T00:48:58.990Z,11.41
2019-03-04T00:51:32.521Z,11.40
2019-03-04T00:54:02.754Z,11.55
2019-03-04T00:56:35.040Z,11.33
2019-03-04T00:59:05.182Z,11.25
2019-03-04T01:01:34.292Z,11.26
2019-03-04T01:04:04.811Z,11.13
2019-03-04T01:06:36.597Z,11.10
2019-03-04T01:09:08.654Z,10.99
2019-03-04T01:11:39.546Z,11.03
2019-03-04T01:14:09.720Z,10.91
2019-03-04T01:16:38.819Z,10.96
2019-03-04T01:19:09.894Z,10.84
2019-03-04T01:21:39.040Z,11.04
2019-03-04T01:24:08.260Z,10.94
2019-03-04T01:26:44.374Z,11.02
2019-03-04T01:29:21.155Z,10.90
2019-03-04T01:31:53.031Z,10.97
2019-03-04T01:34:22.126Z,11.03
2019-03-04T01:36:53.817Z,11.08
2019-03-04T01:39:22.954Z,11.17
2019-03-04T01:41:52.052Z,11.11
2019-03-04T01:44:21.196Z,11.31
2019-03-04T01:46:51.490Z,11.19
2019-03-04T01:49:20.571Z,11.34
2019-03-04T01:51:52.258Z,11.38
2019-03-04T01:54:21.322Z,11.45
2019-03-04T01:56:50.435Z,11.78
2019-03-04T01:59:20.306Z,11.49
2019-03-04T02:01:49.505Z,11.36
2019-03-04T02:04:18.622Z,11.25
2019-03-04T02:06:49.190Z,11.21
2019-03-04T02:09:22.551Z,11.21
2019-03-04T02:11:52.088Z,11.02
2019-03-04T02:14:22.865Z,11.22
2019-03-04T02:16:53.272Z,11.00
2019-03-04T02:19:26.090Z,10.89
2019-03-04T02:21:55.182Z,10.87
2019-03-04T02:24:28.044Z,10.91
2019-03-04T02:26:59.228Z,11.20
2019-03-04T02:29:32.964Z,11.05
2019-03-04T02:32:02.148Z,11.08
2019-03-04T02:34:31.272Z,11.36
2019-03-04T02:37:00.350Z,11.29
2019-03-04T02:39:30.959Z,11.06
2019-03-04T02:42:02.966Z,11.15
2019-03-04T02:44:34.523Z,11.21
2019-03-04T02:47:03.656Z,11.40
2019-03-04T02:49:32.909Z,11.48
2019-03-04T02:52:03.223Z,11.34
2019-03-04T02:54:42.940Z,11.07
2019-03-04T02:57:12.050Z,11.28
2019-03-04T02:59:44.739Z,11.25
2019-03-04T03:02:13.931Z,11.41
2019-03-04T03:04:43.838Z,11.26
2019-03-04T03:07:17.542Z,11.75
2019-03-04T03:09:54.340Z,11.37
2019-03-04T03:12:23.424Z,11.57
2019-03-04T03:14:53.878Z,11.86
2019-03-04T03:17:26.252Z,11.80
2019-03-04T03:19:55.359Z,11.93
2019-03-04T03:22:26.247Z,12.09
2019-03-04T03:24:57.387Z,12.24
2019-03-04T03:27:26.526Z,11.82
2019-03-04T03:29:55.630Z,11.24
2019-03-04T03:32:24.729Z,11.16
2019-03-04T03:34:55.197Z,11.36
2019-03-04T03:37:26.821Z,11.78
2019-03-04T03:39:55.946Z,11.13
2019-03-04T03:42:25.070Z,10.84
2019-03-04T03:44:56.402Z,10.76
2019-03-04T03:47:28.030Z,10.73
2019-03-04T03:49:57.109Z,10.60
2019-03-04T03:52:26.199Z,10.87
2019-03-04T03:54:59.428Z,10.67
2019-03-04T03:57:29.125Z,10.64
2019-03-04T04:00:04.292Z,10.61
2019-03-04T04:02:33.415Z,10.67
2019-03-04T04:05:02.507Z,10.75
2019-03-04T04:07:32.915Z,10.96
2019-03-04T04:10:02.130Z,10.91
2019-03-04T04:12:31.331Z,11.23
2019-03-04T04:15:22.540Z,11.33
2019-03-04T04:18:00.702Z,11.42
2019-03-04T04:20:29.825Z,11.10
2019-03-04T04:22:58.932Z,10.73
2019-03-04T04:25:30.065Z,10.80
2019-03-04T04:27:58.933Z,10.64
2019-03-04T04:30:29.264Z,10.74
2019-03-04T04:32:58.458Z,1.87
2019-03-04T04:35:33.972Z,10.21
2019-03-04T04:38:03.131Z,10.51
2019-03-04T04:40:32.269Z,10.47
2019-03-04T04:43:01.385Z,10.36
2019-03-04T04:45:30.870Z,10.54
2019-03-04T04:48:02.442Z,10.70
2019-03-04T04:50:36.282Z,10.61
2019-03-04T04:53:07.147Z,10.61
2019-03-04T04:55:36.606Z,10.57
2019-03-04T04:58:05.732Z,10.69
2019-03-04T05:00:34.845Z,10.77
2019-03-04T05:03:04.882Z,11.14
2019-03-04T05:05:33.961Z,10.84
2019-03-04T05:08:03.465Z,11.23
2019-03-04T05:10:41.953Z,10.85
2019-03-04T05:13:11.108Z,10.85
2019-03-04T05:15:41.592Z,11.03
2019-03-04T05:18:14.092Z,10.66
2019-03-04T05:20:43.221Z,10.44
2019-03-04T05:23:12.319Z,10.34
2019-03-04T05:25:41.418Z,10.38
2019-03-04T05:28:12.125Z,10.54
2019-03-04T05:30:46.443Z,10.76
2019-03-04T05:33:15.837Z,11.12
2019-03-04T05:35:48.364Z,11.01
2019-03-04T05:38:17.595Z,11.25
2019-03-04T05:40:46.709Z,10.77
2019-03-04T05:43:15.842Z,10.79
2019-03-04T05:45:45.126Z,10.61
2019-03-04T05:48:14.213Z,8.55
2019-03-04T05:50:45.067Z,10.62
2019-03-04T05:53:18.401Z,10.71
2019-03-04T05:55:48.606Z,10.82
2019-03-04T05:58:19.313Z,11.35
2019-03-04T06:01:18.238Z,11.51
2019-03-04T06:03:48.630Z,11.76
2019-03-04T06:06:41.308Z,11.30
2019-03-04T06:09:11.963Z,11.12
2019-03-04T06:11:44.822Z,11.34
2019-03-04T06:14:16.702Z,11.77
2019-03-04T06:16:47.488Z,11.58
2019-03-04T06:19:19.535Z,11.12
2019-03-04T06:21:48.699Z,11.16
2019-03-04T06:24:17.779Z,2.80
2019-03-04T06:26:46.879Z,10.87
2019-03-04T06:29:15.954Z,11.03
2019-03-04T06:31:45.112Z,11.49
2019-03-04T06:34:14.742Z,11.53
2019-03-04T06:36:53.051Z,11.71
2019-03-04T06:39:22.405Z,11.39
2019-03-04T06:41:55.219Z,12.10
2019-03-04T06:44:24.343Z,12.01
2019-03-04T06:46:54.888Z,12.07
2019-03-04T06:49:26.671Z,12.43
2019-03-04T06:51:57.850Z,12.10
2019-03-04T06:55:10.897Z,12.16
2019-03-04T06:57:47.840Z,12.14
2019-03-04T07:00:58.731Z,11.88
2019-03-04T07:03:33.524Z,11.85
2019-03-04T07:06:02.857Z,11.53
2019-03-04T07:09:13.861Z,11.79
2019-03-04T07:11:50.594Z,12.27
2019-03-04T07:14:19.712Z,12.48
2019-03-04T07:16:52.815Z,12.67
2019-03-04T07:19:24.479Z,12.89
2019-03-04T07:21:53.675Z,12.97
2019-03-04T07:24:24.991Z,13.13
2019-03-04T07:27:03.147Z,13.24
2019-03-04T07:29:35.046Z,13.22
2019-03-04T07:32:05.174Z,13.22
2019-03-04T07:34:37.335Z,13.36
2019-03-04T07:37:06.455Z,13.40
2019-03-04T07:39:35.623Z,3.96
2019-03-04T07:42:05.180Z,3.60
2019-03-04T07:44:36.255Z,13.49
2019-03-04T07:47:07.781Z,13.34
2019-03-04T07:49:38.179Z,13.23
2019-03-04T07:52:08.682Z,13.11
2019-03-04T07:54:40.791Z,13.19
2019-03-04T07:57:10.027Z,13.03
2019-03-04T07:59:46.124Z,12.77
2019-03-04T08:02:19.336Z,12.43
2019-03-04T08:04:48.256Z,12.38
2019-03-04T08:07:47.512Z,12.21
2019-03-04T08:10:48.888Z,11.79
2019-03-04T08:13:45.326Z,11.23
2019-03-04T08:16:19.483Z,10.78
2019-03-04T08:18:53.074Z,10.63
2019-03-04T08:21:27.150Z,8.02
2019-03-04T08:24:01.694Z,10.12
2019-03-04T08:26:31.270Z,10.19
2019-03-04T08:29:00.566Z,10.16
2019-03-04T08:31:34.302Z,9.76
2019-03-04T08:34:03.675Z,9.76
2019-03-04T08:36:40.605Z,9.77
2019-03-04T08:39:15.977Z,9.44
2019-03-04T08:41:45.117Z,9.32
2019-03-04T08:44:14.195Z,9.33
2019-03-04T08:46:43.305Z,9.25
2019-03-04T08:49:12.388Z,9.31
2019-03-04T08:51:41.546Z,9.16
2019-03-04T08:54:10.763Z,9.30
2019-03-04T08:56:42.899Z,9.27
2019-03-04T08:59:14.634Z,9.34
2019-03-04T09:01:44.873Z,9.40
2019-03-04T09:04:18.753Z,9.60
2019-03-04T09:06:47.951Z,9.57
2019-03-04T09:09:17.993Z,9.63
2019-03-04T09:11:48.225Z,9.62
2019-03-04T09:14:17.443Z,9.63
2019-03-04T09:16:46.725Z,9.63
2019-03-04T09:19:22.105Z,9.56
2019-03-04T09:21:51.555Z,9.64
2019-03-04T09:24:25.360Z,9.59
2019-03-04T09:27:02.126Z,9.57
2019-03-04T09:29:32.393Z,9.68
2019-03-04T09:32:03.310Z,9.67
2019-03-04T09:34:32.667Z,9.69
2019-03-04T09:37:02.534Z,9.77
2019-03-04T09:39:31.972Z,9.93
2019-03-04T09:42:09.060Z,9.88
2019-03-04T09:44:39.516Z,9.99
2019-03-04T09:47:17.845Z,10.01
2019-03-04T09:49:48.324Z,10.29
2019-03-04T09:52:19.364Z,10.12
2019-03-04T09:54:51.023Z,10.22
2019-03-04T09:57:20.284Z,10.47
2019-03-04T09:59:51.447Z,10.52
2019-03-04T10:02:31.889Z,10.55
2019-03-04T10:05:29.511Z,10.44
2019-03-04T10:08:16.511Z,10.43
2019-03-04T10:11:29.860Z,10.42
2019-03-04T10:14:47.744Z,10.43
2019-03-04T10:18:00.143Z,10.21
2019-03-04T10:21:01.161Z,10.43
2019-03-04T10:24:25.117Z,10.18
2019-03-04T10:27:45.022Z,10.27
2019-03-04T10:31:16.794Z,10.39
2019-03-04T10:34:17.308Z,10.25
2019-03-04T10:37:01.459Z,10.35
2019-03-04T10:40:15.563Z,10.32
2019-03-04T10:43:25.367Z,10.15
2019-03-04T10:46:35.299Z,10.47
2019-03-04T10:49:04.529Z,10.12
2019-03-04T10:51:34.603Z,10.11
2019-03-04T10:54:08.113Z,10.13
2019-03-04T10:56:45.075Z,10.03
2019-03-04T10:59:15.949Z,10.17
2019-03-04T11:02:01.426Z,10.18
2019-03-04T11:04:44.235Z,10.07
2019-03-04T11:07:16.093Z,10.10
2019-03-04T11:09:45.223Z,10.00
2019-03-04T11:12:21.900Z,10.03
2019-03-04T11:14:51.170Z,9.94
2019-03-04T11:17:20.235Z,9.94
2019-03-04T11:19:51.246Z,10.05
2019-03-04T11:22:24.749Z,9.97
2019-03-04T11:24:54.138Z,10.21
2019-03-04T11:27:23.511Z,9.91
2019-03-04T11:29:53.052Z,9.91
2019-03-04T11:32:25.111Z,9.94
2019-03-04T11:34:57.016Z,9.90
2019-03-04T11:37:29.218Z,9.99
2019-03-04T11:40:06.261Z,9.94
2019-03-04T11:42:35.389Z,10.17
2019-03-04T11:45:06.183Z,10.10
2019-03-04T11:47:38.423Z,9.93
2019-03-04T11:50:12.202Z,10.05
2019-03-04T11:52:42.288Z,10.16
2019-03-04T11:55:16.158Z,10.14
2019-03-04T11:57:45.337Z,10.06
2019-03-04T12:00:21.726Z,10.13
2019-03-04T12:02:53.170Z,10.04
2019-03-04T12:05:24.456Z,10.13
2019-03-04T12:07:54.298Z,10.16
2019-03-04T12:10:23.556Z,10.13
2019-03-04T12:12:52.741Z,10.16
2019-03-04T12:15:21.942Z,10.11
2019-03-04T12:17:52.487Z,9.83
2019-03-04T12:20:21.995Z,10.00
2019-03-04T12:22:53.131Z,9.71
2019-03-04T12:25:22.763Z,9.82
2019-03-04T12:27:52.298Z,9.86
2019-03-04T12:30:22.473Z,9.87
2019-03-04T12:32:53.350Z,9.78
2019-03-04T12:35:26.227Z,9.77
2019-03-04T12:37:59.176Z,9.94
2019-03-04T12:40:31.302Z,9.96
2019-03-04T12:43:03.180Z,10.04
2019-03-04T12:45:34.723Z,10.00
2019-03-04T12:48:07.088Z,10.29
2019-03-04T12:50:37.772Z,10.16
2019-03-04T12:53:07.058Z,10.67
2019-03-04T12:55:39.893Z,11.06
2019-03-04T12:58:17.089Z,10.78
2019-03-04T13:00:48.015Z,11.40
2019-03-04T13:03:25.738Z,10.89
2019-03-04T13:05:54.966Z,11.00
2019-03-04T13:08:27.865Z,11.01
2019-03-04T13:10:57.078Z,11.24
2019-03-04T13:13:29.390Z,11.76
2019-03-04T13:16:02.726Z,11.82
2019-03-04T13:18:34.992Z,11.58
2019-03-04T13:21:04.198Z,11.53
2019-03-04T13:23:33.866Z,11.30
2019-03-04T13:26:05.749Z,11.66
2019-03-04T13:28:41.306Z,8.56
2019-03-04T13:31:12.512Z,12.20
2019-03-04T13:33:41.695Z,11.98
2019-03-04T13:36:17.708Z,11.96
2019-03-04T13:38:51.584Z,12.07
2019-03-04T13:41:22.102Z,10.64
2019-03-04T13:43:56.524Z,12.40
2019-03-04T13:46:25.828Z,12.35
2019-03-04T13:48:55.774Z,12.21
2019-03-04T13:51:25.284Z,12.64
2019-03-04T13:54:00.691Z,12.42
2019-03-04T13:56:41.979Z,12.72
2019-03-04T13:59:12.619Z,12.89
2019-03-04T14:01:44.147Z,12.84
2019-03-04T14:04:14.729Z,12.85
2019-03-04T14:06:46.447Z,12.48
2019-03-04T14:09:21.071Z,12.67
2019-03-04T14:11:53.160Z,12.51
2019-03-04T14:14:24.889Z,12.53
2019-03-04T14:16:55.811Z,12.80
2019-03-04T14:19:27.666Z,12.77
2019-03-04T14:21:58.850Z,12.74
2019-03-04T14:24:29.652Z,12.62
2019-03-04T14:27:00.005Z,12.46
2019-03-04T14:29:32.821Z,4.01
2019-03-04T14:32:02.085Z,10.41
2019-03-04T14:34:31.266Z,12.58
2019-03-04T14:37:03.212Z,12.87
2019-03-04T14:39:37.005Z,12.63
2019-03-04T14:42:06.555Z,12.43
2019-03-04T14:44:37.666Z,12.38
2019-03-04T14:47:13.263Z,12.36
2019-03-04T14:49:45.052Z,12.53
2019-03-04T14:52:13.478Z,12.68
2019-03-04T14:54:42.912Z,12.20
2019-03-04T14:57:12.310Z,12.16
2019-03-04T14:59:47.935Z,12.25
2019-03-04T15:02:20.883Z,12.25
2019-03-04T15:04:54.124Z,11.79
2019-03-04T15:07:25.120Z,11.64
2019-03-04T15:09:58.048Z,11.32
2019-03-04T15:12:27.202Z,11.30
2019-03-04T15:14:57.446Z,11.01
2019-03-04T15:17:31.093Z,10.89
2019-03-04T15:20:08.995Z,10.84
2019-03-04T15:22:34.773Z,10.72
2019-03-04T15:25:06.206Z,10.94
2019-03-04T15:27:35.811Z,10.70
2019-03-04T15:30:12.310Z,10.52
2019-03-04T15:32:41.610Z,10.28
2019-03-04T15:35:10.883Z,10.04
2019-03-04T15:37:42.800Z,9.61
2019-03-04T15:40:37.532Z,9.17
2019-03-04T15:43:06.717Z,8.01
2019-03-04T15:45:36.384Z,7.76
2019-03-04T15:48:08.558Z,7.83
2019-03-04T15:50:40.821Z,7.74
2019-03-04T15:53:09.978Z,7.28
2019-03-04T15:55:40.824Z,7.28
2019-03-04T15:58:10.045Z,7.38
2019-03-04T16:00:39.187Z,7.48
2019-03-04T16:03:12.058Z,7.29
2019-03-04T16:05:43.523Z,7.43
2019-03-04T16:08:17.519Z,7.49
2019-03-04T16:10:48.399Z,7.41
2019-03-04T16:13:18.700Z,7.36
2019-03-04T16:15:50.501Z,7.47
2019-03-04T16:18:20.013Z,7.37
2019-03-04T16:20:51.356Z,7.35
2019-03-04T16:23:20.647Z,7.38
2019-03-04T16:25:51.539Z,7.46
2019-03-04T16:28:25.798Z,7.48
2019-03-04T16:30:55.303Z,7.61
2019-03-04T16:33:28.055Z,7.54
2019-03-04T16:35:58.846Z,7.65
2019-03-04T16:38:28.018Z,7.39
2019-03-04T16:40:58.320Z,7.29
2019-03-04T16:43:30.100Z,7.45
2019-03-04T16:46:00.591Z,7.60
2019-03-04T16:48:31.231Z,7.51
2019-03-04T16:51:00.386Z,7.64
2019-03-04T16:53:33.289Z,7.82
2019-03-04T16:56:02.463Z,7.66
2019-03-04T16:58:31.663Z,7.53
2019-03-04T17:01:02.549Z,7.53
2019-03-04T17:03:32.575Z,7.48
2019-03-04T17:06:01.725Z,7.31
2019-03-04T17:08:32.755Z,7.29
2019-03-04T17:11:04.927Z,7.19
2019-03-04T17:13:40.197Z,7.22
2019-03-04T17:16:14.918Z,7.36
2019-03-04T17:18:45.247Z,7.23
2019-03-04T17:21:14.327Z,7.11
2019-03-04T17:23:47.945Z,7.56
2019-03-04T17:26:22.507Z,7.78
2019-03-04T17:28:51.677Z,7.69
2019-03-04T17:31:28.581Z,7.44
2019-03-04T17:33:57.719Z,7.18
2019-03-04T17:36:26.854Z,7.26
2019-03-04T17:38:57.747Z,7.33
2019-03-04T17:41:28.249Z,7.14
2019-03-04T17:43:58.557Z,6.97
2019-03-04T17:46:27.672Z,6.93
2019-03-04T17:48:56.940Z,7.29
2019-03-04T17:51:27.470Z,7.28
2019-03-04T17:53:59.826Z,7.01
2019-03-04T17:56:31.119Z,7.23
2019-03-04T17:59:01.230Z,7.44
2019-03-04T18:01:32.006Z,7.02
2019-03-04T18:04:01.102Z,7.09
2019-03-04T18:06:31.518Z,7.12
2019-03-04T18:09:01.610Z,6.99
2019-03-04T18:11:33.724Z,7.11
2019-03-04T18:14:04.613Z,7.49
2019-03-04T18:16:38.352Z,7.49
2019-03-04T18:19:07.484Z,7.17
2019-03-04T18:21:36.712Z,7.57
2019-03-04T18:24:07.440Z,7.30
2019-03-04T18:26:48.967Z,7.31
2019-03-04T18:29:57.447Z,7.23
2019-03-04T18:33:22.835Z,7.31
2019-03-04T18:36:17.708Z,7.43
2019-03-04T18:39:29.857Z,8.23
2019-03-04T18:42:25.632Z,7.76
2019-03-04T18:45:30.451Z,8.07
2019-03-04T18:48:26.598Z,7.93
2019-03-04T18:50:57.479Z,7.57
2019-03-04T18:53:26.830Z,7.33
2019-03-04T18:55:58.777Z,7.48
2019-03-04T18:58:30.641Z,7.63
2019-03-04T19:01:00.880Z,7.34
2019-03-04T19:03:32.561Z,7.32
2019-03-04T19:06:02.916Z,7.42
2019-03-04T19:08:32.052Z,7.35
2019-03-04T19:11:01.187Z,7.05
2019-03-04T19:13:32.469Z,7.15
2019-03-04T19:16:09.785Z,7.09
2019-03-04T19:18:38.881Z,7.30
2019-03-04T19:21:10.157Z,7.14
2019-03-04T19:23:38.921Z,7.11
2019-03-04T19:26:10.010Z,6.98
2019-03-04T19:28:39.119Z,7.16
2019-03-04T19:31:08.308Z,-2.85
2019-03-04T19:33:37.579Z,7.09
2019-03-04T19:36:06.789Z,7.49
2019-03-04T19:38:36.008Z,7.60
2019-03-04T19:41:05.413Z,7.94
2019-03-04T19:43:34.721Z,7.90
2019-03-04T19:46:03.877Z,8.15
2019-03-04T19:48:34.307Z,7.98
2019-03-04T19:51:08.117Z,7.47
2019-03-04T19:53:37.214Z,7.12
2019-03-04T19:56:06.518Z,6.94
2019-03-04T19:58:35.800Z,6.99
2019-03-04T20:01:20.102Z,6.77
2019-03-04T20:03:40.010Z,6.89
2019-03-04T20:06:09.182Z,6.84
2019-03-04T20:08:38.590Z,6.59
2019-03-04T20:11:11.081Z,6.48
2019-03-04T20:13:40.375Z,6.53
2019-03-04T20:16:10.774Z,-3.74
2019-03-04T20:18:42.058Z,6.64
2019-03-04T20:21:18.038Z,6.62
2019-03-04T20:23:51.302Z,6.64
2019-03-04T20:26:20.700Z,6.51
2019-03-04T20:28:50.253Z,6.49
2019-03-04T20:31:22.561Z,6.32
2019-03-04T20:33:51.681Z,6.23
2019-03-04T20:36:20.997Z,6.32
2019-03-04T20:38:53.610Z,6.18
2019-03-04T20:41:22.881Z,6.16
2019-03-04T20:43:52.596Z,6.17
2019-03-04T20:46:24.991Z,6.14
2019-03-04T20:48:54.200Z,5.77
2019-03-04T20:51:24.935Z,5.78
2019-03-04T20:53:54.192Z,5.66
2019-03-04T20:56:23.367Z,6.04
2019-03-04T20:58:59.333Z,5.82
2019-03-04T21:01:28.525Z,5.49
2019-03-04T21:04:00.878Z,5.65
2019-03-04T21:06:33.002Z,5.75
2019-03-04T21:09:14.467Z,5.84
2019-03-04T21:11:43.607Z,5.92
2019-03-04T21:14:12.893Z,5.82
2019-03-04T21:16:42.086Z,5.96
2019-03-04T21:19:11.268Z,5.90
2019-03-04T21:21:40.576Z,6.01
2019-03-04T21:24:18.037Z,5.85
2019-03-04T21:26:50.988Z,5.91
2019-03-04T21:30:02.377Z,5.93
2019-03-04T21:32:50.094Z,5.94
2019-03-04T21:35:56.344Z,5.90
2019-03-04T21:38:29.497Z,6.01
2019-03-04T21:41:32.181Z,6.19
2019-03-04T21:44:09.362Z,5.86
2019-03-04T21:47:01.337Z,6.18
2019-03-04T21:49:34.492Z,6.18
2019-03-04T21:52:35.081Z,6.17
2019-03-04T21:55:07.116Z,6.33
2019-03-04T21:57:41.157Z,6.20
2019-03-04T22:00:20.476Z,6.28
2019-03-04T22:03:04.327Z,5.96
2019-03-04T22:05:33.911Z,5.85
2019-03-04T22:08:04.183Z,5.99
2019-03-04T22:10:33.496Z,6.08
2019-03-04T22:13:03.142Z,6.29
2019-03-04T22:15:32.337Z,5.71
2019-03-04T22:18:02.426Z,5.77
2019-03-04T22:20:51.263Z,5.96
2019-03-04T22:23:21.659Z,5.87
2019-03-04T22:26:01.914Z,6.04
2019-03-04T22:28:27.832Z,6.01
2019-03-04T22:30:59.354Z,5.99
2019-03-04T22:33:28.528Z,6.34
2019-03-04T22:35:57.690Z,6.37
2019-03-04T22:38:26.915Z,6.25
2019-03-04T22:40:57.042Z,6.47
2019-03-04T22:43:27.294Z,6.34
2019-03-04T22:46:01.933Z,6.49
2019-03-04T22:48:31.254Z,6.33
2019-03-04T22:51:00.454Z,6.30
2019-03-04T22:53:32.088Z,6.16
2019-03-04T22:56:02.139Z,6.46
2019-03-04T22:58:37.366Z,6.07
2019-03-04T23:01:39.112Z,6.25
2019-03-04T23:04:20.116Z,5.98
2019-03-04T23:07:17.533Z,6.16
2019-03-04T23:10:13.397Z,6.15
2019-03-04T23:12:59.926Z,6.18
2019-03-04T23:15:30.170Z,6.16
2019-03-04T23:17:59.349Z,6.32
2019-03-04T23:20:34.403Z,6.29
2019-03-04T23:23:11.824Z,6.22
2019-03-04T23:25:40.995Z,6.25
2019-03-04T23:28:10.359Z,6.15
2019-03-04T23:30:41.233Z,6.16
2019-03-04T23:33:15.808Z,6.00
2019-03-04T23:35:48.053Z,6.41
2019-03-04T23:38:18.514Z,6.15
2019-03-04T23:40:53.161Z,6.04
2019-03-04T23:43:24.230Z,6.14
2019-03-04T23:45:53.580Z,6.23
2019-03-04T23:48:36.794Z,6.18
2019-03-04T23:51:06.347Z,6.10
2019-03-04T23:53:35.525Z,6.38
2019-03-04T23:56:05.878Z,6.55
2019-03-04T23:58:35.325Z,6.45
